createdAt,value
2023-02-08T00:00:05.677Z,0.50
2023-02-08T00:02:32.271Z,0.50
2023-02-08T00:04:58.779Z,0.40
2023-02-08T00:07:25.687Z,0.30
2023-02-08T00:09:52.202Z,0.30
2023-02-08T00:12:18.790Z,0.30
2023-02-08T00:14:45.307Z,0.30
2023-02-08T00:17:11.833Z,0.30
2023-02-08T00:19:38.397Z,0.30
2023-02-08T00:22:05.215Z,0.30
2023-02-08T00:24:31.799Z,0.30
2023-02-08T00:26:58.303Z,0.20
2023-02-08T00:29:24.823Z,0.20
2023-02-08T00:31:51.365Z,0.20
2023-02-08T00:34:17.949Z,0.10
2023-02-08T00:36:44.466Z,0.10
2023-02-08T00:39:10.980Z,0.10
2023-02-08T00:41:37.514Z,0.10
2023-02-08T00:44:04.242Z,0.00
2023-02-08T00:46:30.922Z,0.00
2023-02-08T00:48:57.602Z,0.00
2023-02-08T00:51:24.192Z,0.10
2023-02-08T00:53:50.746Z,0.00
2023-02-08T00:56:17.817Z,0.00
2023-02-08T00:58:44.616Z,0.00
2023-02-08T01:01:11.797Z,0.00
2023-02-08T01:03:40.616Z,0.10
2023-02-08T01:06:10.051Z,0.10
2023-02-08T01:08:37.149Z,0.10
2023-02-08T01:11:10.848Z,0.00
2023-02-08T01:13:38.089Z,0.00
2023-02-08T01:16:12.043Z,0.00
2023-02-08T01:18:40.104Z,0.00
2023-02-08T01:21:08.955Z,0.00
2023-02-08T01:23:35.746Z,0.00
2023-02-08T01:26:02.694Z,-0.10
2023-02-08T01:28:29.294Z,-0.10
2023-02-08T01:30:55.925Z,-0.10
2023-02-08T01:33:22.514Z,-0.10
2023-02-08T01:35:53.325Z,-0.10
2023-02-08T01:38:20.524Z,-0.10
2023-02-08T01:40:47.231Z,0.00
2023-02-08T01:43:24.982Z,0.00
2023-02-08T01:45:52.478Z,0.10
2023-02-08T01:48:28.716Z,0.20
2023-02-08T01:51:03.968Z,0.20
2023-02-08T01:53:33.159Z,0.20
2023-02-08T01:56:02.383Z,0.20
2023-02-08T01:58:31.949Z,0.10
2023-02-08T02:00:58.619Z,0.00
2023-02-08T02:03:25.412Z,0.00
2023-02-08T02:06:02.898Z,0.00
2023-02-08T02:08:30.334Z,0.00
2023-02-08T02:10:56.872Z,0.10
2023-02-08T02:13:26.189Z,0.10
2023-02-08T02:15:52.964Z,0.10
2023-02-08T02:18:26.032Z,0.10
2023-02-08T02:21:12.285Z,0.20
2023-02-08T02:24:09.915Z,0.20
2023-02-08T02:26:51.090Z,0.20
2023-02-08T02:29:25.213Z,0.30
2023-02-08T02:31:59.982Z,0.30
2023-02-08T02:34:48.009Z,0.20
2023-02-08T02:37:32.734Z,0.20
2023-02-08T02:40:18.202Z,0.20
2023-02-08T02:43:24.308Z,0.20
2023-02-08T02:46:29.148Z,0.20
2023-02-08T02:49:33.701Z,0.20
2023-02-08T02:52:10.243Z,0.20
2023-02-08T02:54:41.962Z,0.20
2023-02-08T02:57:12.447Z,0.20
2023-02-08T02:59:39.491Z,0.20
2023-02-08T03:02:06.064Z,0.20
2023-02-08T03:04:32.597Z,0.20
2023-02-08T03:07:21.228Z,0.10
2023-02-08T03:10:18.915Z,0.10
2023-02-08T03:12:48.204Z,0.20
2023-02-08T03:15:28.937Z,0.20
2023-02-08T03:18:04.552Z,0.20
2023-02-08T03:20:38.672Z,0.20
2023-02-08T03:23:21.501Z,0.10
2023-02-08T03:26:04.885Z,0.10
2023-02-08T03:28:56.794Z,0.10
2023-02-08T03:31:33.054Z,0.10
2023-02-08T03:34:08.596Z,0.10
2023-02-08T03:36:40.710Z,0.00
2023-02-08T03:39:13.556Z,0.10
2023-02-08T03:41:44.471Z,0.10
2023-02-08T03:44:17.729Z,0.10
2023-02-08T03:46:51.985Z,0.00
2023-02-08T03:49:22.810Z,0.10
2023-02-08T03:51:52.122Z,0.00
2023-02-08T03:54:23.417Z,0.00
2023-02-08T03:56:59.493Z,0.00
2023-02-08T03:59:30.705Z,0.00
2023-02-08T04:02:03.306Z,0.10
2023-02-08T04:04:36.467Z,0.20
2023-02-08T04:07:03.098Z,0.10
2023-02-08T04:09:29.662Z,0.00
2023-02-08T04:11:56.238Z,0.00
2023-02-08T04:14:22.830Z,0.10
2023-02-08T04:16:49.436Z,0.00
2023-02-08T04:19:15.943Z,0.00
2023-02-08T04:21:42.476Z,0.00
2023-02-08T04:24:09.250Z,0.10
2023-02-08T04:26:35.905Z,0.00
2023-02-08T04:29:02.463Z,0.00
2023-02-08T04:31:29.212Z,-0.10
2023-02-08T04:33:55.864Z,-0.10
2023-02-08T04:36:22.533Z,-0.10
2023-02-08T04:38:49.196Z,-0.10
2023-02-08T04:41:15.769Z,-0.10
2023-02-08T04:43:42.363Z,-0.20
2023-02-08T04:46:08.963Z,-0.30
2023-02-08T04:48:35.488Z,-0.30
2023-02-08T04:51:02.101Z,-0.30
2023-02-08T04:53:28.697Z,-0.40
2023-02-08T04:55:55.258Z,-0.50
2023-02-08T04:58:22.710Z,-0.40
2023-02-08T05:00:49.282Z,-0.50
2023-02-08T05:03:15.882Z,-0.50
2023-02-08T05:05:42.478Z,-0.50
2023-02-08T05:08:09.033Z,-0.50
2023-02-08T05:10:35.561Z,-0.50
2023-02-08T05:13:02.115Z,-0.50
2023-02-08T05:15:28.711Z,-0.40
2023-02-08T05:17:55.204Z,-0.50
2023-02-08T05:20:21.816Z,-0.40
2023-02-08T05:22:48.394Z,-0.40
2023-02-08T05:25:14.991Z,-0.40
2023-02-08T05:27:41.495Z,-0.40
2023-02-08T05:30:08.523Z,-0.30
2023-02-08T05:32:35.121Z,-0.30
2023-02-08T05:35:01.664Z,-0.30
2023-02-08T05:37:28.251Z,-0.30
2023-02-08T05:39:54.793Z,-0.30
2023-02-08T05:42:21.462Z,-0.30
2023-02-08T05:44:48.050Z,-0.30
2023-02-08T05:47:14.676Z,-0.30
2023-02-08T05:49:41.289Z,-0.40
2023-02-08T05:52:07.927Z,-0.40
2023-02-08T05:54:34.429Z,-0.40
2023-02-08T05:57:01.025Z,-0.40
2023-02-08T05:59:27.644Z,-0.40
2023-02-08T06:01:54.191Z,-0.40
2023-02-08T06:04:20.827Z,-0.30
2023-02-08T06:06:47.609Z,-0.30
2023-02-08T06:09:14.143Z,-0.30
2023-02-08T06:11:40.715Z,-0.30
2023-02-08T06:14:07.261Z,-0.30
2023-02-08T06:16:33.912Z,-0.30
2023-02-08T06:19:00.633Z,-0.30
2023-02-08T06:21:28.138Z,-0.30
2023-02-08T06:23:54.659Z,-0.20
2023-02-08T06:26:21.206Z,-0.20
2023-02-08T06:28:47.726Z,-0.20
2023-02-08T06:31:14.288Z,-0.20
2023-02-08T06:33:40.847Z,-0.20
2023-02-08T06:36:07.680Z,-0.10
2023-02-08T06:38:34.428Z,-0.10
2023-02-08T06:41:00.960Z,-0.10
2023-02-08T06:43:27.535Z,-0.10
2023-02-08T06:45:54.128Z,-0.10
2023-02-08T06:48:20.672Z,-0.20
2023-02-08T06:50:47.372Z,-0.20
2023-02-08T06:53:14.766Z,-0.20
2023-02-08T06:55:41.872Z,-0.20
2023-02-08T06:58:08.474Z,-0.10
2023-02-08T07:00:34.987Z,-0.10
2023-02-08T07:03:01.563Z,-0.10
2023-02-08T07:05:28.196Z,0.00
2023-02-08T07:07:54.782Z,0.00
2023-02-08T07:10:21.363Z,0.00
2023-02-08T07:12:47.888Z,0.00
2023-02-08T07:15:14.586Z,0.00
2023-02-08T07:17:41.220Z,0.00
2023-02-08T07:20:08.490Z,0.00
2023-02-08T07:22:35.124Z,0.00
2023-02-08T07:25:01.657Z,0.10
2023-02-08T07:27:28.267Z,0.10
2023-02-08T07:29:54.785Z,0.20
2023-02-08T07:32:21.463Z,0.20
2023-02-08T07:34:48.007Z,0.20
2023-02-08T07:37:14.600Z,0.20
2023-02-08T07:39:41.224Z,0.20
2023-02-08T07:42:09.528Z,0.20
2023-02-08T07:44:39.340Z,0.30
2023-02-08T07:47:07.276Z,0.30
2023-02-08T07:49:33.850Z,0.40
2023-02-08T07:52:01.398Z,0.40
2023-02-08T07:54:28.821Z,0.50
2023-02-08T07:56:56.062Z,0.60
2023-02-08T07:59:22.707Z,0.70
2023-02-08T08:01:49.426Z,0.80
2023-02-08T08:04:16.273Z,0.90
2023-02-08T08:06:42.885Z,1.00
2023-02-08T08:09:09.417Z,1.00
2023-02-08T08:11:35.970Z,1.00
2023-02-08T08:14:02.508Z,1.20
2023-02-08T08:16:29.137Z,1.30
2023-02-08T08:18:55.798Z,1.30
2023-02-08T08:21:22.297Z,1.10
2023-02-08T08:23:48.864Z,1.20
2023-02-08T08:26:17.492Z,1.20
2023-02-08T08:28:46.560Z,1.20
2023-02-08T08:31:16.805Z,1.30
2023-02-08T08:33:43.522Z,1.40
2023-02-08T08:36:10.154Z,1.50
2023-02-08T08:38:38.593Z,1.50
2023-02-08T08:41:14.666Z,1.70
2023-02-08T08:43:41.397Z,1.80
2023-02-08T08:46:09.248Z,1.90
2023-02-08T08:48:38.314Z,2.00
2023-02-08T08:51:05.442Z,2.00
2023-02-08T08:53:32.144Z,2.00
2023-02-08T08:55:58.813Z,1.90
2023-02-08T08:58:25.421Z,1.90
2023-02-08T09:00:52.068Z,2.00
2023-02-08T09:03:18.590Z,2.10
2023-02-08T09:05:47.087Z,2.00
2023-02-08T09:08:13.839Z,1.90
2023-02-08T09:10:40.923Z,1.90
2023-02-08T09:13:08.244Z,1.80
2023-02-08T09:15:38.122Z,1.80
2023-02-08T09:18:04.748Z,2.00
2023-02-08T09:20:31.248Z,2.00
2023-02-08T09:22:57.979Z,2.10
2023-02-08T09:25:24.850Z,2.00
2023-02-08T09:27:51.374Z,1.90
2023-02-08T09:30:17.945Z,1.70
2023-02-08T09:32:44.499Z,1.60
2023-02-08T09:35:13.238Z,1.60
2023-02-08T09:37:39.762Z,1.60
2023-02-08T09:40:06.725Z,1.50
2023-02-08T09:42:43.474Z,1.50
2023-02-08T09:45:36.570Z,1.50
2023-02-08T09:48:11.923Z,1.50
2023-02-08T09:50:44.655Z,1.40
2023-02-08T09:53:21.451Z,1.40
2023-02-08T09:56:00.039Z,1.40
2023-02-08T09:58:39.511Z,1.40
2023-02-08T10:01:23.741Z,1.30
2023-02-08T10:03:53.276Z,1.30
2023-02-08T10:06:21.029Z,1.30
2023-02-08T10:08:50.704Z,1.30
2023-02-08T10:11:24.946Z,1.40
2023-02-08T10:14:07.681Z,1.60
2023-02-08T10:17:05.942Z,1.70
2023-02-08T10:19:49.848Z,1.80
2023-02-08T10:22:38.737Z,2.00
2023-02-08T10:25:42.806Z,2.10
2023-02-08T10:28:34.287Z,2.10
2023-02-08T10:31:00.963Z,2.10
2023-02-08T10:33:50.972Z,2.10
2023-02-08T10:36:22.088Z,2.10
2023-02-08T10:38:50.993Z,2.20
2023-02-08T10:41:23.093Z,2.10
2023-02-08T10:44:02.695Z,2.00
2023-02-08T10:46:44.004Z,1.80
2023-02-08T10:49:40.901Z,1.80
2023-02-08T10:52:07.522Z,1.70
2023-02-08T10:54:35.079Z,1.80
2023-02-08T10:57:04.850Z,2.00
2023-02-08T10:59:36.650Z,1.90
2023-02-08T11:02:11.271Z,1.90
2023-02-08T11:05:07.640Z,2.00
2023-02-08T11:07:36.601Z,2.20
2023-02-08T11:10:18.744Z,2.20
2023-02-08T11:12:57.301Z,2.30
2023-02-08T11:15:43.455Z,2.20
2023-02-08T11:18:23.782Z,2.20
2023-02-08T11:20:54.568Z,2.30
2023-02-08T11:23:25.535Z,2.30
2023-02-08T11:25:53.229Z,2.30
2023-02-08T11:28:29.824Z,2.30
2023-02-08T11:30:59.602Z,2.20
2023-02-08T11:33:27.691Z,2.20
2023-02-08T11:36:06.864Z,2.20
2023-02-08T11:38:36.477Z,2.30
2023-02-08T11:41:05.768Z,2.50
2023-02-08T11:43:34.919Z,2.40
2023-02-08T11:46:04.719Z,2.10
2023-02-08T11:48:49.325Z,2.00
2023-02-08T11:51:36.217Z,2.10
2023-02-08T11:54:04.504Z,2.30
2023-02-08T11:56:33.981Z,2.60
2023-02-08T11:59:21.117Z,2.70
2023-02-08T12:01:47.818Z,2.20
2023-02-08T12:04:16.826Z,2.00
2023-02-08T12:07:11.014Z,1.90
2023-02-08T12:10:06.466Z,1.90
2023-02-08T12:12:54.126Z,1.90
2023-02-08T12:15:51.362Z,1.90
2023-02-08T12:18:40.704Z,2.00
2023-02-08T12:21:16.104Z,1.90
2023-02-08T12:23:49.694Z,1.80
2023-02-08T12:26:34.755Z,1.70
2023-02-08T12:29:20.223Z,1.80
2023-02-08T12:32:06.374Z,2.00
2023-02-08T12:34:51.174Z,2.30
2023-02-08T12:37:42.125Z,2.60
2023-02-08T12:40:36.690Z,2.60
2023-02-08T12:43:30.360Z,2.40
2023-02-08T12:46:13.353Z,2.50
2023-02-08T12:49:17.406Z,2.20
2023-02-08T12:51:59.689Z,2.10
2023-02-08T12:54:46.613Z,2.20
2023-02-08T12:57:17.558Z,2.10
2023-02-08T12:59:58.547Z,2.20
2023-02-08T13:02:44.852Z,2.00
2023-02-08T13:05:18.894Z,1.90
2023-02-08T13:07:48.118Z,1.60
2023-02-08T13:10:26.358Z,1.60
2023-02-08T13:12:57.095Z,1.70
2023-02-08T13:15:38.606Z,1.70
2023-02-08T13:18:29.932Z,1.80
2023-02-08T13:20:59.436Z,2.00
2023-02-08T13:23:52.506Z,2.20
2023-02-08T13:26:21.599Z,2.40
2023-02-08T13:28:51.030Z,2.40
2023-02-08T13:31:23.551Z,2.20
2023-02-08T13:34:01.962Z,2.10
2023-02-08T13:36:35.770Z,2.10
2023-02-08T13:39:05.957Z,1.90
2023-02-08T13:41:33.919Z,1.70
2023-02-08T13:44:08.444Z,1.70
2023-02-08T13:46:43.658Z,1.70
2023-02-08T13:49:48.878Z,1.70
2023-02-08T13:52:47.029Z,1.80
2023-02-08T13:55:41.108Z,1.90
2023-02-08T13:58:13.686Z,1.90
2023-02-08T14:00:56.210Z,2.00
2023-02-08T14:03:27.240Z,2.00
2023-02-08T14:05:58.559Z,2.00
2023-02-08T14:08:30.207Z,2.00
2023-02-08T14:11:18.142Z,2.00
2023-02-08T14:13:59.295Z,2.00
2023-02-08T14:16:36.305Z,1.80
2023-02-08T14:19:06.197Z,1.60
2023-02-08T14:21:34.859Z,1.70
2023-02-08T14:24:04.826Z,1.70
2023-02-08T14:26:32.298Z,1.70
2023-02-08T14:29:02.114Z,1.60
2023-02-08T14:31:43.027Z,1.60
2023-02-08T14:34:34.374Z,1.70
2023-02-08T14:37:10.662Z,1.70
2023-02-08T14:39:37.394Z,1.70
2023-02-08T14:42:09.869Z,1.80
2023-02-08T14:44:41.411Z,1.80
2023-02-08T14:47:26.993Z,1.80
2023-02-08T14:50:18.685Z,1.90
2023-02-08T14:53:14.611Z,1.90
2023-02-08T14:55:48.655Z,1.90
2023-02-08T14:58:27.017Z,1.90
2023-02-08T15:00:54.951Z,1.80
2023-02-08T15:03:23.221Z,1.70
2023-02-08T15:06:21.575Z,1.70
2023-02-08T15:08:55.496Z,1.70
2023-02-08T15:11:28.872Z,1.70
2023-02-08T15:14:01.088Z,1.80
2023-02-08T15:16:40.346Z,1.90
2023-02-08T15:19:09.261Z,1.90
2023-02-08T15:21:40.999Z,1.90
2023-02-08T15:24:16.263Z,1.90
2023-02-08T15:26:48.366Z,1.90
2023-02-08T15:29:39.206Z,1.80
2023-02-08T15:32:17.018Z,1.80
2023-02-08T15:34:53.055Z,1.80
2023-02-08T15:37:20.446Z,1.70
2023-02-08T15:39:53.422Z,1.70
2023-02-08T15:42:29.499Z,1.60
2023-02-08T15:44:56.553Z,1.70
2023-02-08T15:47:26.201Z,1.70
2023-02-08T15:49:55.332Z,1.60
2023-02-08T15:52:24.976Z,1.50
2023-02-08T15:54:51.804Z,1.50
2023-02-08T15:57:40.641Z,1.50
2023-02-08T16:00:14.021Z,1.50
2023-02-08T16:02:42.228Z,1.50
2023-02-08T16:05:20.156Z,1.50
2023-02-08T16:07:47.541Z,1.50
2023-02-08T16:10:25.184Z,1.40
2023-02-08T16:13:17.665Z,1.40
2023-02-08T16:15:47.442Z,1.30
2023-02-08T16:18:35.889Z,1.30
2023-02-08T16:21:05.430Z,1.30
2023-02-08T16:23:33.856Z,1.30
2023-02-08T16:26:21.965Z,1.20
2023-02-08T16:28:54.229Z,1.10
2023-02-08T16:31:29.928Z,1.10
2023-02-08T16:34:00.443Z,1.10
2023-02-08T16:36:32.641Z,1.10
2023-02-08T16:39:22.481Z,1.00
2023-02-08T16:42:06.424Z,1.00
2023-02-08T16:45:09.135Z,1.00
2023-02-08T16:47:50.596Z,1.00
2023-02-08T16:50:27.626Z,0.90
2023-02-08T16:53:00.105Z,1.00
2023-02-08T16:55:29.744Z,1.00
2023-02-08T16:57:58.305Z,1.00
2023-02-08T17:00:28.554Z,0.90
2023-02-08T17:02:56.357Z,0.90
2023-02-08T17:05:26.147Z,0.80
2023-02-08T17:07:53.080Z,0.80
2023-02-08T17:10:31.360Z,0.80
2023-02-08T17:13:18.870Z,0.80
2023-02-08T17:15:48.796Z,0.80
2023-02-08T17:18:15.567Z,0.80
2023-02-08T17:20:42.760Z,0.80
2023-02-08T17:23:10.094Z,0.80
2023-02-08T17:25:36.967Z,0.80
2023-02-08T17:28:11.494Z,0.80
2023-02-08T17:30:41.238Z,0.80
2023-02-08T17:33:17.552Z,0.80
2023-02-08T17:35:49.585Z,0.80
2023-02-08T17:38:17.475Z,0.80
2023-02-08T17:40:44.398Z,0.70
2023-02-08T17:43:12.415Z,0.70
2023-02-08T17:45:40.200Z,0.70
2023-02-08T17:48:07.134Z,0.70
2023-02-08T17:50:34.285Z,0.70
2023-02-08T17:53:01.041Z,0.70
2023-02-08T17:55:27.598Z,0.70
2023-02-08T17:57:54.151Z,0.70
2023-02-08T18:00:23.603Z,0.80
2023-02-08T18:02:52.616Z,0.80
2023-02-08T18:05:27.193Z,0.80
2023-02-08T18:07:55.645Z,0.80
2023-02-08T18:10:23.970Z,0.80
2023-02-08T18:12:50.737Z,0.80
2023-02-08T18:15:20.738Z,0.80
2023-02-08T18:17:48.081Z,0.80
2023-02-08T18:20:15.249Z,0.80
2023-02-08T18:22:43.029Z,0.80
2023-02-08T18:25:10.848Z,0.90
2023-02-08T18:27:37.505Z,0.90
2023-02-08T18:30:04.472Z,0.80
2023-02-08T18:32:31.142Z,0.80
2023-02-08T18:34:58.612Z,0.80
2023-02-08T18:37:25.310Z,0.80
2023-02-08T18:39:52.162Z,0.70
2023-02-08T18:42:18.796Z,0.60
2023-02-08T18:44:45.515Z,0.60
2023-02-08T18:47:12.071Z,0.60
2023-02-08T18:49:40.796Z,0.70
2023-02-08T18:52:09.445Z,0.60
2023-02-08T18:54:37.869Z,0.60
2023-02-08T18:57:06.068Z,0.60
2023-02-08T18:59:33.436Z,0.60
2023-02-08T19:02:01.570Z,0.60
2023-02-08T19:04:28.706Z,0.60
2023-02-08T19:06:55.277Z,0.60
2023-02-08T19:09:21.848Z,0.60
2023-02-08T19:11:48.810Z,0.60
2023-02-08T19:14:15.783Z,0.60
2023-02-08T19:16:43.069Z,0.60
2023-02-08T19:19:10.346Z,0.60
2023-02-08T19:21:37.041Z,0.60
2023-02-08T19:24:03.850Z,0.60
2023-02-08T19:26:33.729Z,0.50
2023-02-08T19:29:03.120Z,0.40
2023-02-08T19:31:30.632Z,0.30
2023-02-08T19:33:59.096Z,0.20
2023-02-08T19:36:32.613Z,0.20
2023-02-08T19:38:59.923Z,0.20
2023-02-08T19:41:31.061Z,0.10
2023-02-08T19:43:57.650Z,0.10
2023-02-08T19:46:27.392Z,0.10
2023-02-08T19:48:56.860Z,0.10
2023-02-08T19:51:23.402Z,0.10
2023-02-08T19:53:50.164Z,0.00
2023-02-08T19:56:18.491Z,0.00
2023-02-08T19:58:46.566Z,0.00
2023-02-08T20:01:22.180Z,-0.10
2023-02-08T20:03:50.170Z,-0.10
2023-02-08T20:06:25.149Z,-0.10
2023-02-08T20:08:51.909Z,-0.10
2023-02-08T20:11:21.161Z,-0.10
2023-02-08T20:13:48.106Z,-0.10
2023-02-08T20:16:15.228Z,-0.10
2023-02-08T20:18:42.054Z,-0.10
2023-02-08T20:21:08.595Z,-0.20
2023-02-08T20:23:35.607Z,-0.20
2023-02-08T20:26:17.220Z,-0.30
2023-02-08T20:28:46.759Z,-0.30
2023-02-08T20:31:17.053Z,-0.30
2023-02-08T20:33:43.858Z,-0.30
2023-02-08T20:36:22.340Z,-0.30
2023-02-08T20:38:49.056Z,-0.30
2023-02-08T20:41:16.482Z,-0.30
2023-02-08T20:43:44.577Z,-0.30
2023-02-08T20:46:18.327Z,-0.20
2023-02-08T20:48:45.221Z,-0.20
2023-02-08T20:51:15.034Z,-0.20
2023-02-08T20:53:43.748Z,-0.20
2023-02-08T20:56:16.303Z,-0.20
2023-02-08T20:58:43.000Z,-0.20
2023-02-08T21:01:13.440Z,-0.30
2023-02-08T21:03:40.398Z,-0.20
2023-02-08T21:06:14.159Z,-0.30
2023-02-08T21:08:41.036Z,-0.30
2023-02-08T21:11:08.801Z,-0.20
2023-02-08T21:13:35.865Z,-0.20
2023-02-08T21:16:07.206Z,-0.20
2023-02-08T21:18:33.838Z,-0.20
2023-02-08T21:21:03.668Z,-0.30
2023-02-08T21:23:30.439Z,-0.30
2023-02-08T21:26:01.799Z,-0.40
2023-02-08T21:28:28.554Z,-0.40
2023-02-08T21:31:10.894Z,-0.40
2023-02-08T21:33:37.554Z,-0.50
2023-02-08T21:36:06.853Z,-0.50
2023-02-08T21:38:33.442Z,-0.50
2023-02-08T21:41:05.114Z,-0.60
2023-02-08T21:43:31.644Z,-0.60
2023-02-08T21:46:03.136Z,-0.60
2023-02-08T21:48:29.758Z,-0.70
2023-02-08T21:51:18.960Z,-0.70
2023-02-08T21:54:04.187Z,-0.70
2023-02-08T21:56:30.823Z,-0.70
2023-02-08T21:58:57.408Z,-0.70
2023-02-08T22:01:23.977Z,-0.70
2023-02-08T22:03:50.517Z,-0.60
2023-02-08T22:06:17.114Z,-0.70
2023-02-08T22:08:43.643Z,-0.70
2023-02-08T22:11:10.196Z,-0.60
2023-02-08T22:13:36.836Z,-0.60
2023-02-08T22:16:07.818Z,-0.60
2023-02-08T22:18:34.422Z,-0.60
2023-02-08T22:21:04.321Z,-0.60
2023-02-08T22:23:30.884Z,-0.70
2023-02-08T22:25:57.435Z,-0.70
2023-02-08T22:28:24.206Z,-0.70
2023-02-08T22:30:51.001Z,-0.70
2023-02-08T22:33:17.607Z,-0.70
2023-02-08T22:35:44.166Z,-0.80
2023-02-08T22:38:10.701Z,-0.70
2023-02-08T22:40:37.239Z,-0.70
2023-02-08T22:43:03.831Z,-0.70
2023-02-08T22:45:30.414Z,-0.70
2023-02-08T22:47:56.957Z,-0.70
2023-02-08T22:50:23.503Z,-0.80
2023-02-08T22:52:50.148Z,-0.90
2023-02-08T22:55:16.778Z,-0.90
2023-02-08T22:57:43.447Z,-0.90
2023-02-08T23:00:12.874Z,-0.90
2023-02-08T23:02:39.418Z,-0.90
2023-02-08T23:05:06.592Z,-0.90
2023-02-08T23:07:33.238Z,-0.90
2023-02-08T23:09:59.775Z,-0.80
2023-02-08T23:12:26.355Z,-0.90
2023-02-08T23:14:52.979Z,-0.80
2023-02-08T23:17:19.503Z,-0.80
2023-02-08T23:19:46.127Z,-0.80
2023-02-08T23:22:13.134Z,-0.80
2023-02-08T23:24:39.680Z,-0.90
2023-02-08T23:27:06.323Z,-0.90
2023-02-08T23:29:33.079Z,-0.90
2023-02-08T23:31:59.714Z,-1.00
2023-02-08T23:34:27.036Z,-1.00
2023-02-08T23:36:53.554Z,-1.00
2023-02-08T23:39:20.118Z,-1.10
2023-02-08T23:41:46.691Z,-1.10
2023-02-08T23:44:13.338Z,-1.20
2023-02-08T23:46:39.938Z,-1.20
2023-02-08T23:49:06.503Z,-1.20
2023-02-08T23:51:33.206Z,-1.20
2023-02-08T23:53:59.785Z,-1.20
2023-02-08T23:56:29.396Z,-1.20
2023-02-08T23:58:58.271Z,-1.20
